sensor_id;sensor_type;location;lat;lon;timestamp;P1;durP1;ratioP1;P2;durP2;ratioP2
29344;SDS011;16339;48.748;2.222;2023-08-24T03:35:31;8.68;;;4.90;;
29344;SDS011;16339;48.748;2.222;2023-08-24T03:58:55;10.65;;;5.75;;
29344;SDS011;16339;48.748;2.222;2023-08-24T05:14:43;12.38;;;4.97;;
29344;SDS011;16339;48.748;2.222;2023-08-24T05:17:39;9.68;;;5.68;;
29344;SDS011;16339;48.748;2.222;2023-08-24T05:27:34;12.43;;;5.28;;
29344;SDS011;16339;48.748;2.222;2023-08-24T05:30:14;7.40;;;5.18;;
29344;SDS011;16339;48.748;2.222;2023-08-24T05:33:05;11.65;;;5.32;;
29344;SDS011;16339;48.748;2.222;2023-08-24T05:35:46;10.57;;;5.47;;
29344;SDS011;16339;48.748;2.222;2023-08-24T05:38:34;22.80;;;6.10;;
29344;SDS011;16339;48.748;2.222;2023-08-24T05:45:03;14.15;;;5.47;;
29344;SDS011;16339;48.748;2.222;2023-08-24T05:52:06;17.30;;;5.95;;
29344;SDS011;16339;48.748;2.222;2023-08-24T05:55:27;7.60;;;5.22;;
29344;SDS011;16339;48.748;2.222;2023-08-24T05:58:01;9.52;;;5.10;;
29344;SDS011;16339;48.748;2.222;2023-08-24T06:00:39;11.40;;;6.03;;
29344;SDS011;16339;48.748;2.222;2023-08-24T06:03:13;12.43;;;5.75;;
29344;SDS011;16339;48.748;2.222;2023-08-24T06:05:53;13.30;;;5.22;;
29344;SDS011;16339;48.748;2.222;2023-08-24T06:08:46;9.02;;;5.43;;
29344;SDS011;16339;48.748;2.222;2023-08-24T06:11:19;12.82;;;5.35;;
29344;SDS011;16339;48.748;2.222;2023-08-24T06:13:48;11.27;;;5.22;;
29344;SDS011;16339;48.748;2.222;2023-08-24T06:16:18;19.10;;;5.63;;
29344;SDS011;16339;48.748;2.222;2023-08-24T06:18:47;9.60;;;5.45;;
29344;SDS011;16339;48.748;2.222;2023-08-24T06:21:47;13.75;;;5.53;;
29344;SDS011;16339;48.748;2.222;2023-08-24T06:30:26;7.15;;;5.05;;
29344;SDS011;16339;48.748;2.222;2023-08-24T06:32:58;10.48;;;5.43;;
29344;SDS011;16339;48.748;2.222;2023-08-24T06:35:28;11.45;;;5.43;;
29344;SDS011;16339;48.748;2.222;2023-08-24T06:37:57;14.48;;;5.55;;
29344;SDS011;16339;48.748;2.222;2023-08-24T06:40:26;14.27;;;5.15;;
29344;SDS011;16339;48.748;2.222;2023-08-24T06:43:10;8.73;;;5.60;;
29344;SDS011;16339;48.748;2.222;2023-08-24T06:45:54;21.00;;;5.78;;
29344;SDS011;16339;48.748;2.222;2023-08-24T06:48:38;14.75;;;5.05;;
29344;SDS011;16339;48.748;2.222;2023-08-24T06:51:07;8.77;;;5.00;;
29344;SDS011;16339;48.748;2.222;2023-08-24T06:53:36;24.20;;;6.38;;
29344;SDS011;16339;48.748;2.222;2023-08-24T06:56:06;12.57;;;5.97;;
29344;SDS011;16339;48.748;2.222;2023-08-24T06:58:42;10.35;;;5.85;;
29344;SDS011;16339;48.748;2.222;2023-08-24T07:01:15;12.15;;;6.43;;
29344;SDS011;16339;48.748;2.222;2023-08-24T07:03:44;13.25;;;5.70;;
29344;SDS011;16339;48.748;2.222;2023-08-24T07:06:12;10.27;;;5.75;;
29344;SDS011;16339;48.748;2.222;2023-08-24T07:08:41;15.23;;;8.13;;
29344;SDS011;16339;48.748;2.222;2023-08-24T07:11:13;21.45;;;9.68;;
29344;SDS011;16339;48.748;2.222;2023-08-24T07:13:45;15.13;;;9.02;;
29344;SDS011;16339;48.748;2.222;2023-08-24T07:16:15;14.38;;;6.47;;
29344;SDS011;16339;48.748;2.222;2023-08-24T07:25:31;15.68;;;6.10;;
29344;SDS011;16339;48.748;2.222;2023-08-24T07:39:44;9.82;;;5.38;;
29344;SDS011;16339;48.748;2.222;2023-08-24T07:42:20;21.50;;;6.25;;
29344;SDS011;16339;48.748;2.222;2023-08-24T07:44:50;13.75;;;6.82;;
29344;SDS011;16339;48.748;2.222;2023-08-24T07:47:30;13.20;;;5.63;;
29344;SDS011;16339;48.748;2.222;2023-08-24T07:53:20;16.23;;;7.28;;
29344;SDS011;16339;48.748;2.222;2023-08-24T07:55:56;14.13;;;5.82;;
29344;SDS011;16339;48.748;2.222;2023-08-24T07:58:25;7.97;;;5.43;;
29344;SDS011;16339;48.748;2.222;2023-08-24T08:00:59;13.75;;;5.20;;
29344;SDS011;16339;48.748;2.222;2023-08-24T08:03:41;12.95;;;5.40;;
29344;SDS011;16339;48.748;2.222;2023-08-24T08:09:23;15.63;;;5.38;;
29344;SDS011;16339;48.748;2.222;2023-08-24T08:15:44;17.25;;;4.90;;
29344;SDS011;16339;48.748;2.222;2023-08-24T08:35:43;11.10;;;4.78;;
29344;SDS011;16339;48.748;2.222;2023-08-24T08:38:12;12.50;;;5.15;;
29344;SDS011;16339;48.748;2.222;2023-08-24T08:47:14;9.15;;;4.68;;
29344;SDS011;16339;48.748;2.222;2023-08-24T08:49:48;9.73;;;4.60;;
29344;SDS011;16339;48.748;2.222;2023-08-24T08:52:20;16.13;;;4.83;;
29344;SDS011;16339;48.748;2.222;2023-08-24T08:54:50;16.63;;;5.38;;
29344;SDS011;16339;48.748;2.222;2023-08-24T08:57:19;10.70;;;4.95;;
29344;SDS011;16339;48.748;2.222;2023-08-24T08:59:51;10.50;;;4.93;;
29344;SDS011;16339;48.748;2.222;2023-08-24T09:02:34;11.18;;;5.03;;
29344;SDS011;16339;48.748;2.222;2023-08-24T09:11:26;9.32;;;4.95;;
29344;SDS011;16339;48.748;2.222;2023-08-24T09:13:58;11.60;;;5.07;;
29344;SDS011;16339;48.748;2.222;2023-08-24T09:16:28;13.85;;;5.20;;
29344;SDS011;16339;48.748;2.222;2023-08-24T09:18:57;15.68;;;5.55;;
29344;SDS011;16339;48.748;2.222;2023-08-24T09:21:27;11.10;;;5.20;;
29344;SDS011;16339;48.748;2.222;2023-08-24T09:36:10;24.90;;;6.43;;
29344;SDS011;16339;48.748;2.222;2023-08-24T09:38:45;15.98;;;5.68;;
29344;SDS011;16339;48.748;2.222;2023-08-24T09:41:17;22.38;;;6.53;;
29344;SDS011;16339;48.748;2.222;2023-08-24T09:43:47;16.52;;;5.93;;
29344;SDS011;16339;48.748;2.222;2023-08-24T09:46:18;14.32;;;5.05;;
29344;SDS011;16339;48.748;2.222;2023-08-24T09:48:53;19.08;;;6.03;;
29344;SDS011;16339;48.748;2.222;2023-08-24T09:51:26;14.40;;;6.22;;
29344;SDS011;16339;48.748;2.222;2023-08-24T09:53:57;17.63;;;6.07;;
29344;SDS011;16339;48.748;2.222;2023-08-24T09:56:28;20.45;;;6.60;;
29344;SDS011;16339;48.748;2.222;2023-08-24T09:58:58;13.75;;;6.47;;
29344;SDS011;16339;48.748;2.222;2023-08-24T10:01:33;17.52;;;6.30;;
29344;SDS011;16339;48.748;2.222;2023-08-24T10:04:03;15.07;;;6.18;;
29344;SDS011;16339;48.748;2.222;2023-08-24T10:06:36;15.60;;;6.13;;
29344;SDS011;16339;48.748;2.222;2023-08-24T10:09:06;14.80;;;6.25;;
29344;SDS011;16339;48.748;2.222;2023-08-24T10:11:40;14.35;;;5.82;;
29344;SDS011;16339;48.748;2.222;2023-08-24T10:14:15;16.60;;;6.18;;
29344;SDS011;16339;48.748;2.222;2023-08-24T10:16:51;13.18;;;5.57;;
29344;SDS011;16339;48.748;2.222;2023-08-24T10:19:21;15.13;;;5.63;;
29344;SDS011;16339;48.748;2.222;2023-08-24T10:21:54;14.20;;;6.05;;
29344;SDS011;16339;48.748;2.222;2023-08-24T10:24:24;23.55;;;5.97;;
29344;SDS011;16339;48.748;2.222;2023-08-24T10:26:55;19.90;;;6.03;;
29344;SDS011;16339;48.748;2.222;2023-08-24T10:29:25;13.98;;;5.70;;
29344;SDS011;16339;48.748;2.222;2023-08-24T10:31:57;10.93;;;6.03;;
29344;SDS011;16339;48.748;2.222;2023-08-24T10:34:26;21.20;;;6.03;;
29344;SDS011;16339;48.748;2.222;2023-08-24T10:36:57;10.23;;;5.60;;
29344;SDS011;16339;48.748;2.222;2023-08-24T10:39:34;28.65;;;6.13;;
29344;SDS011;16339;48.748;2.222;2023-08-24T10:42:06;12.35;;;5.97;;
29344;SDS011;16339;48.748;2.222;2023-08-24T10:44:39;22.33;;;5.45;;
29344;SDS011;16339;48.748;2.222;2023-08-24T10:47:12;11.35;;;6.03;;
29344;SDS011;16339;48.748;2.222;2023-08-24T10:49:42;15.00;;;5.93;;
29344;SDS011;16339;48.748;2.222;2023-08-24T10:52:24;11.60;;;5.75;;
29344;SDS011;16339;48.748;2.222;2023-08-24T10:54:53;17.55;;;5.90;;
29344;SDS011;16339;48.748;2.222;2023-08-24T10:57:22;14.60;;;5.90;;
29344;SDS011;16339;48.748;2.222;2023-08-24T10:59:59;10.95;;;5.25;;
29344;SDS011;16339;48.748;2.222;2023-08-24T11:02:30;18.83;;;6.05;;
29344;SDS011;16339;48.748;2.222;2023-08-24T11:05:15;13.75;;;5.85;;
29344;SDS011;16339;48.748;2.222;2023-08-24T11:07:51;10.30;;;6.05;;
29344;SDS011;16339;48.748;2.222;2023-08-24T11:10:22;10.85;;;5.30;;
29344;SDS011;16339;48.748;2.222;2023-08-24T11:13:14;15.48;;;5.93;;
29344;SDS011;16339;48.748;2.222;2023-08-24T11:15:44;11.38;;;5.68;;
29344;SDS011;16339;48.748;2.222;2023-08-24T11:18:20;10.30;;;5.85;;
29344;SDS011;16339;48.748;2.222;2023-08-24T11:23:22;13.43;;;6.40;;
29344;SDS011;16339;48.748;2.222;2023-08-24T11:25:55;23.67;;;6.05;;
29344;SDS011;16339;48.748;2.222;2023-08-24T11:28:26;13.10;;;5.93;;
29344;SDS011;16339;48.748;2.222;2023-08-24T11:30:56;17.60;;;6.35;;
29344;SDS011;16339;48.748;2.222;2023-08-24T11:33:26;13.23;;;5.37;;
29344;SDS011;16339;48.748;2.222;2023-08-24T11:35:57;18.98;;;8.40;;
29344;SDS011;16339;48.748;2.222;2023-08-24T11:38:40;13.55;;;5.57;;
29344;SDS011;16339;48.748;2.222;2023-08-24T11:41:11;9.40;;;5.47;;
29344;SDS011;16339;48.748;2.222;2023-08-24T11:43:41;14.90;;;5.90;;
29344;SDS011;16339;48.748;2.222;2023-08-24T11:46:10;10.98;;;5.70;;
29344;SDS011;16339;48.748;2.222;2023-08-24T11:48:48;9.77;;;5.88;;
29344;SDS011;16339;48.748;2.222;2023-08-24T11:51:17;19.40;;;6.18;;
29344;SDS011;16339;48.748;2.222;2023-08-24T11:53:48;12.18;;;6.40;;
29344;SDS011;16339;48.748;2.222;2023-08-24T11:56:17;15.50;;;6.30;;
29344;SDS011;16339;48.748;2.222;2023-08-24T11:58:47;31.35;;;7.05;;
29344;SDS011;16339;48.748;2.222;2023-08-24T12:01:19;27.73;;;7.63;;
29344;SDS011;16339;48.748;2.222;2023-08-24T12:03:49;16.75;;;7.05;;
29344;SDS011;16339;48.748;2.222;2023-08-24T12:06:32;18.67;;;6.95;;
29344;SDS011;16339;48.748;2.222;2023-08-24T12:09:04;11.55;;;6.85;;
29344;SDS011;16339;48.748;2.222;2023-08-24T12:11:37;15.88;;;7.00;;
29344;SDS011;16339;48.748;2.222;2023-08-24T12:14:06;16.17;;;7.00;;
29344;SDS011;16339;48.748;2.222;2023-08-24T12:16:35;14.80;;;7.72;;
29344;SDS011;16339;48.748;2.222;2023-08-24T12:19:06;15.18;;;8.00;;
29344;SDS011;16339;48.748;2.222;2023-08-24T12:21:41;14.38;;;7.35;;
29344;SDS011;16339;48.748;2.222;2023-08-24T12:24:23;17.95;;;7.97;;
29344;SDS011;16339;48.748;2.222;2023-08-24T12:27:04;14.07;;;8.45;;
29344;SDS011;16339;48.748;2.222;2023-08-24T12:29:33;13.57;;;7.32;;
29344;SDS011;16339;48.748;2.222;2023-08-24T12:32:11;14.18;;;7.57;;
29344;SDS011;16339;48.748;2.222;2023-08-24T12:34:57;12.32;;;7.05;;
29344;SDS011;16339;48.748;2.222;2023-08-24T12:37:39;12.68;;;7.90;;
29344;SDS011;16339;48.748;2.222;2023-08-24T12:40:27;14.45;;;8.30;;
29344;SDS011;16339;48.748;2.222;2023-08-24T12:42:56;16.30;;;8.27;;
29344;SDS011;16339;48.748;2.222;2023-08-24T12:45:41;18.63;;;8.43;;
29344;SDS011;16339;48.748;2.222;2023-08-24T12:48:13;13.02;;;9.00;;
29344;SDS011;16339;48.748;2.222;2023-08-24T12:50:41;14.57;;;8.07;;
29344;SDS011;16339;48.748;2.222;2023-08-24T12:53:15;13.85;;;8.18;;
29344;SDS011;16339;48.748;2.222;2023-08-24T12:55:46;13.52;;;8.57;;
29344;SDS011;16339;48.748;2.222;2023-08-24T12:58:15;20.33;;;9.20;;
29344;SDS011;16339;48.748;2.222;2023-08-24T13:00:45;21.60;;;8.95;;
29344;SDS011;16339;48.748;2.222;2023-08-24T13:03:14;13.85;;;9.73;;
29344;SDS011;16339;48.748;2.222;2023-08-24T13:05:42;14.85;;;9.35;;
29344;SDS011;16339;48.748;2.222;2023-08-24T13:08:12;15.18;;;8.88;;
29344;SDS011;16339;48.748;2.222;2023-08-24T13:10:41;18.02;;;8.90;;
29344;SDS011;16339;48.748;2.222;2023-08-24T13:13:12;18.55;;;8.02;;
29344;SDS011;16339;48.748;2.222;2023-08-24T13:15:41;13.23;;;7.55;;
29344;SDS011;16339;48.748;2.222;2023-08-24T13:18:13;17.05;;;7.75;;
29344;SDS011;16339;48.748;2.222;2023-08-24T13:20:41;17.73;;;7.72;;
29344;SDS011;16339;48.748;2.222;2023-08-24T13:23:10;21.40;;;8.43;;
29344;SDS011;16339;48.748;2.222;2023-08-24T13:25:39;15.80;;;6.93;;
29344;SDS011;16339;48.748;2.222;2023-08-24T13:31:03;17.20;;;6.80;;
29344;SDS011;16339;48.748;2.222;2023-08-24T13:33:48;14.80;;;6.80;;
29344;SDS011;16339;48.748;2.222;2023-08-24T13:36:38;12.40;;;5.43;;
29344;SDS011;16339;48.748;2.222;2023-08-24T13:46:33;10.43;;;5.40;;
29344;SDS011;16339;48.748;2.222;2023-08-24T13:49:24;11.82;;;5.70;;
29344;SDS011;16339;48.748;2.222;2023-08-24T13:59:51;8.05;;;4.40;;
29344;SDS011;16339;48.748;2.222;2023-08-24T14:02:04;11.27;;;4.80;;
29344;SDS011;16339;48.748;2.222;2023-08-24T14:04:41;7.05;;;4.15;;
29344;SDS011;16339;48.748;2.222;2023-08-24T14:07:09;11.73;;;5.55;;
29344;SDS011;16339;48.748;2.222;2023-08-24T14:09:41;9.20;;;5.13;;
29344;SDS011;16339;48.748;2.222;2023-08-24T14:18:38;11.05;;;5.93;;
29344;SDS011;16339;48.748;2.222;2023-08-24T14:21:07;12.05;;;5.55;;
29344;SDS011;16339;48.748;2.222;2023-08-24T14:26:49;9.85;;;5.47;;
29344;SDS011;16339;48.748;2.222;2023-08-24T14:29:18;14.93;;;5.35;;
29344;SDS011;16339;48.748;2.222;2023-08-24T14:31:55;9.57;;;5.13;;
29344;SDS011;16339;48.748;2.222;2023-08-24T14:40:50;10.45;;;4.65;;
29344;SDS011;16339;48.748;2.222;2023-08-24T14:43:50;10.90;;;5.60;;
29344;SDS011;16339;48.748;2.222;2023-08-24T14:46:18;7.57;;;4.95;;
29344;SDS011;16339;48.748;2.222;2023-08-24T14:48:47;11.48;;;5.63;;
29344;SDS011;16339;48.748;2.222;2023-08-24T14:51:22;11.65;;;5.40;;
29344;SDS011;16339;48.748;2.222;2023-08-24T14:53:50;9.02;;;5.18;;
29344;SDS011;16339;48.748;2.222;2023-08-24T14:56:22;12.48;;;5.28;;
29344;SDS011;16339;48.748;2.222;2023-08-24T14:58:50;15.30;;;5.25;;
29344;SDS011;16339;48.748;2.222;2023-08-24T15:01:19;11.75;;;4.93;;
29344;SDS011;16339;48.748;2.222;2023-08-24T15:03:48;10.73;;;5.00;;
29344;SDS011;16339;48.748;2.222;2023-08-24T15:06:25;15.35;;;5.88;;
29344;SDS011;16339;48.748;2.222;2023-08-24T15:08:56;9.88;;;5.53;;
29344;SDS011;16339;48.748;2.222;2023-08-24T15:14:45;9.27;;;5.22;;
29344;SDS011;16339;48.748;2.222;2023-08-24T15:17:25;14.90;;;4.60;;
29344;SDS011;16339;48.748;2.222;2023-08-24T15:19:54;17.42;;;4.70;;
29344;SDS011;16339;48.748;2.222;2023-08-24T15:22:23;11.50;;;4.70;;
29344;SDS011;16339;48.748;2.222;2023-08-24T15:31:31;7.90;;;3.90;;
29344;SDS011;16339;48.748;2.222;2023-08-24T15:34:03;7.03;;;3.50;;
29344;SDS011;16339;48.748;2.222;2023-08-24T15:39:48;5.40;;;3.75;;
29344;SDS011;16339;48.748;2.222;2023-08-24T15:42:38;9.07;;;3.50;;
29344;SDS011;16339;48.748;2.222;2023-08-24T15:48:31;13.27;;;4.07;;
29344;SDS011;16339;48.748;2.222;2023-08-24T15:50:59;8.45;;;3.72;;
29344;SDS011;16339;48.748;2.222;2023-08-24T15:53:31;7.40;;;3.47;;
29344;SDS011;16339;48.748;2.222;2023-08-24T15:55:59;11.13;;;4.10;;
29344;SDS011;16339;48.748;2.222;2023-08-24T15:58:28;10.00;;;3.70;;
29344;SDS011;16339;48.748;2.222;2023-08-24T16:00:57;12.13;;;4.07;;
29344;SDS011;16339;48.748;2.222;2023-08-24T16:03:30;7.35;;;3.60;;
29344;SDS011;16339;48.748;2.222;2023-08-24T16:06:00;7.95;;;3.88;;
29344;SDS011;16339;48.748;2.222;2023-08-24T16:08:30;8.93;;;3.83;;
29344;SDS011;16339;48.748;2.222;2023-08-24T16:10:59;8.35;;;3.28;;
29344;SDS011;16339;48.748;2.222;2023-08-24T16:13:27;6.85;;;3.53;;
29344;SDS011;16339;48.748;2.222;2023-08-24T16:15:56;6.70;;;3.20;;
29344;SDS011;16339;48.748;2.222;2023-08-24T16:18:25;6.68;;;3.13;;
29344;SDS011;16339;48.748;2.222;2023-08-24T16:20:56;5.90;;;3.35;;
29344;SDS011;16339;48.748;2.222;2023-08-24T16:23:25;9.23;;;3.58;;
29344;SDS011;16339;48.748;2.222;2023-08-24T16:25:58;6.35;;;2.90;;
29344;SDS011;16339;48.748;2.222;2023-08-24T16:28:30;6.60;;;3.08;;
29344;SDS011;16339;48.748;2.222;2023-08-24T16:43:33;13.60;;;3.28;;
29344;SDS011;16339;48.748;2.222;2023-08-24T16:49:35;9.55;;;3.30;;
29344;SDS011;16339;48.748;2.222;2023-08-24T16:55:34;7.43;;;2.60;;
29344;SDS011;16339;48.748;2.222;2023-08-24T17:04:57;6.45;;;3.08;;
29344;SDS011;16339;48.748;2.222;2023-08-24T17:08:01;5.65;;;2.75;;
29344;SDS011;16339;48.748;2.222;2023-08-24T17:10:31;7.22;;;3.15;;
29344;SDS011;16339;48.748;2.222;2023-08-24T17:13:00;8.65;;;3.55;;
29344;SDS011;16339;48.748;2.222;2023-08-24T17:15:35;6.95;;;3.08;;
29344;SDS011;16339;48.748;2.222;2023-08-24T17:18:04;6.80;;;2.58;;
29344;SDS011;16339;48.748;2.222;2023-08-24T17:20:38;6.15;;;3.50;;
29344;SDS011;16339;48.748;2.222;2023-08-24T17:26:19;6.50;;;3.50;;
29344;SDS011;16339;48.748;2.222;2023-08-24T17:28:48;8.55;;;3.33;;
29344;SDS011;16339;48.748;2.222;2023-08-24T17:31:16;5.97;;;3.20;;
29344;SDS011;16339;48.748;2.222;2023-08-24T17:33:45;6.85;;;2.75;;
29344;SDS011;16339;48.748;2.222;2023-08-24T17:36:16;8.65;;;3.28;;
29344;SDS011;16339;48.748;2.222;2023-08-24T17:38:45;4.55;;;3.08;;
29344;SDS011;16339;48.748;2.222;2023-08-24T17:41:14;6.00;;;3.35;;
29344;SDS011;16339;48.748;2.222;2023-08-24T17:43:43;7.45;;;3.40;;
29344;SDS011;16339;48.748;2.222;2023-08-24T17:46:12;8.35;;;4.13;;
29344;SDS011;16339;48.748;2.222;2023-08-24T17:48:40;10.57;;;4.38;;
29344;SDS011;16339;48.748;2.222;2023-08-24T17:51:24;10.82;;;3.90;;
29344;SDS011;16339;48.748;2.222;2023-08-24T17:53:54;13.93;;;3.90;;
29344;SDS011;16339;48.748;2.222;2023-08-24T17:56:23;8.38;;;4.10;;
29344;SDS011;16339;48.748;2.222;2023-08-24T17:58:54;9.43;;;4.15;;
29344;SDS011;16339;48.748;2.222;2023-08-24T18:01:22;11.18;;;3.95;;
29344;SDS011;16339;48.748;2.222;2023-08-24T18:03:59;11.82;;;3.90;;
29344;SDS011;16339;48.748;2.222;2023-08-24T18:06:30;8.57;;;4.47;;
29344;SDS011;16339;48.748;2.222;2023-08-24T18:08:59;9.93;;;3.80;;
29344;SDS011;16339;48.748;2.222;2023-08-24T18:11:32;8.32;;;3.97;;
29344;SDS011;16339;48.748;2.222;2023-08-24T18:14:00;12.27;;;4.22;;
29344;SDS011;16339;48.748;2.222;2023-08-24T18:16:29;8.23;;;3.83;;
29344;SDS011;16339;48.748;2.222;2023-08-24T18:18:58;6.57;;;4.03;;
29344;SDS011;16339;48.748;2.222;2023-08-24T18:21:27;11.27;;;4.07;;
29344;SDS011;16339;48.748;2.222;2023-08-24T18:26:35;11.30;;;4.10;;
29344;SDS011;16339;48.748;2.222;2023-08-24T18:29:04;12.32;;;3.97;;
29344;SDS011;16339;48.748;2.222;2023-08-24T18:31:32;12.00;;;4.00;;
29344;SDS011;16339;48.748;2.222;2023-08-24T18:34:03;7.93;;;3.95;;
29344;SDS011;16339;48.748;2.222;2023-08-24T18:36:35;10.98;;;3.95;;
29344;SDS011;16339;48.748;2.222;2023-08-24T18:39:03;7.28;;;3.88;;
29344;SDS011;16339;48.748;2.222;2023-08-24T18:41:33;12.40;;;4.07;;
29344;SDS011;16339;48.748;2.222;2023-08-24T18:44:01;7.97;;;4.32;;
29344;SDS011;16339;48.748;2.222;2023-08-24T18:46:30;5.90;;;3.90;;
29344;SDS011;16339;48.748;2.222;2023-08-24T18:48:59;7.03;;;3.92;;
29344;SDS011;16339;48.748;2.222;2023-08-24T18:51:28;11.38;;;4.18;;
29344;SDS011;16339;48.748;2.222;2023-08-24T18:53:59;10.00;;;4.30;;
29344;SDS011;16339;48.748;2.222;2023-08-24T18:56:28;8.35;;;4.40;;
29344;SDS011;16339;48.748;2.222;2023-08-24T18:58:57;5.85;;;4.28;;
29344;SDS011;16339;48.748;2.222;2023-08-24T19:01:25;10.90;;;4.47;;
29344;SDS011;16339;48.748;2.222;2023-08-24T19:03:55;8.48;;;4.47;;
29344;SDS011;16339;48.748;2.222;2023-08-24T19:06:24;6.30;;;4.35;;
29344;SDS011;16339;48.748;2.222;2023-08-24T19:08:54;8.20;;;4.25;;
29344;SDS011;16339;48.748;2.222;2023-08-24T19:11:26;12.70;;;5.80;;
29344;SDS011;16339;48.748;2.222;2023-08-24T19:13:55;8.05;;;4.10;;
29344;SDS011;16339;48.748;2.222;2023-08-24T19:16:24;12.02;;;4.43;;
29344;SDS011;16339;48.748;2.222;2023-08-24T19:18:52;8.95;;;4.53;;
29344;SDS011;16339;48.748;2.222;2023-08-24T19:21:21;9.38;;;5.15;;
29344;SDS011;16339;48.748;2.222;2023-08-24T19:23:51;8.80;;;4.50;;
29344;SDS011;16339;48.748;2.222;2023-08-24T19:26:20;8.07;;;4.75;;
29344;SDS011;16339;48.748;2.222;2023-08-24T19:28:51;7.95;;;4.47;;
29344;SDS011;16339;48.748;2.222;2023-08-24T19:31:20;9.60;;;4.50;;
29344;SDS011;16339;48.748;2.222;2023-08-24T19:33:48;13.52;;;4.43;;
29344;SDS011;16339;48.748;2.222;2023-08-24T19:36:17;7.57;;;4.47;;
29344;SDS011;16339;48.748;2.222;2023-08-24T19:38:46;8.07;;;5.03;;
29344;SDS011;16339;48.748;2.222;2023-08-24T19:41:14;8.70;;;4.55;;
29344;SDS011;16339;48.748;2.222;2023-08-24T19:43:43;7.35;;;4.40;;
29344;SDS011;16339;48.748;2.222;2023-08-24T19:46:14;9.32;;;4.28;;
29344;SDS011;16339;48.748;2.222;2023-08-24T19:48:43;9.57;;;4.93;;
29344;SDS011;16339;48.748;2.222;2023-08-24T19:51:12;14.35;;;4.75;;
29344;SDS011;16339;48.748;2.222;2023-08-24T19:53:40;7.05;;;4.78;;
29344;SDS011;16339;48.748;2.222;2023-08-24T19:56:09;9.85;;;4.75;;
29344;SDS011;16339;48.748;2.222;2023-08-24T19:58:38;9.65;;;4.45;;
29344;SDS011;16339;48.748;2.222;2023-08-24T20:01:06;9.43;;;5.10;;
29344;SDS011;16339;48.748;2.222;2023-08-24T20:03:37;8.35;;;4.78;;
29344;SDS011;16339;48.748;2.222;2023-08-24T20:06:17;7.47;;;4.90;;
29344;SDS011;16339;48.748;2.222;2023-08-24T20:08:47;6.60;;;5.00;;
29344;SDS011;16339;48.748;2.222;2023-08-24T20:11:16;13.13;;;7.93;;
29344;SDS011;16339;48.748;2.222;2023-08-24T20:13:45;8.65;;;5.68;;
29344;SDS011;16339;48.748;2.222;2023-08-24T20:16:15;5.43;;;4.72;;
29344;SDS011;16339;48.748;2.222;2023-08-24T20:18:47;5.68;;;4.57;;
29344;SDS011;16339;48.748;2.222;2023-08-24T20:21:15;7.53;;;4.30;;
29344;SDS011;16339;48.748;2.222;2023-08-24T20:23:45;8.38;;;4.82;;
29344;SDS011;16339;48.748;2.222;2023-08-24T20:26:13;8.88;;;5.40;;
29344;SDS011;16339;48.748;2.222;2023-08-24T20:28:42;10.93;;;5.03;;
29344;SDS011;16339;48.748;2.222;2023-08-24T20:31:11;6.68;;;4.50;;
29344;SDS011;16339;48.748;2.222;2023-08-24T20:33:39;7.25;;;4.38;;
29344;SDS011;16339;48.748;2.222;2023-08-24T20:36:10;7.68;;;4.75;;
29344;SDS011;16339;48.748;2.222;2023-08-24T20:38:39;11.82;;;5.15;;
29344;SDS011;16339;48.748;2.222;2023-08-24T20:41:08;5.30;;;4.50;;
29344;SDS011;16339;48.748;2.222;2023-08-24T20:43:37;8.38;;;4.38;;
29344;SDS011;16339;48.748;2.222;2023-08-24T20:46:06;6.43;;;4.20;;
29344;SDS011;16339;48.748;2.222;2023-08-24T20:48:35;9.73;;;4.80;;
29344;SDS011;16339;48.748;2.222;2023-08-24T20:51:03;7.45;;;4.35;;
29344;SDS011;16339;48.748;2.222;2023-08-24T20:53:35;6.78;;;4.28;;
29344;SDS011;16339;48.748;2.222;2023-08-24T20:56:05;6.53;;;4.38;;
29344;SDS011;16339;48.748;2.222;2023-08-24T20:58:34;6.72;;;4.82;;
29344;SDS011;16339;48.748;2.222;2023-08-24T21:01:03;8.27;;;5.22;;
29344;SDS011;16339;48.748;2.222;2023-08-24T21:03:33;10.00;;;4.85;;
29344;SDS011;16339;48.748;2.222;2023-08-24T21:06:02;7.88;;;4.57;;
29344;SDS011;16339;48.748;2.222;2023-08-24T21:08:30;9.52;;;4.53;;
29344;SDS011;16339;48.748;2.222;2023-08-24T21:11:02;9.43;;;5.13;;
29344;SDS011;16339;48.748;2.222;2023-08-24T21:13:31;7.25;;;4.78;;
29344;SDS011;16339;48.748;2.222;2023-08-24T21:15:59;16.20;;;4.97;;
29344;SDS011;16339;48.748;2.222;2023-08-24T21:18:28;11.95;;;6.95;;
29344;SDS011;16339;48.748;2.222;2023-08-24T21:20:57;12.32;;;5.55;;
29344;SDS011;16339;48.748;2.222;2023-08-24T21:23:26;9.93;;;5.00;;
29344;SDS011;16339;48.748;2.222;2023-08-24T21:25:55;7.88;;;5.05;;
29344;SDS011;16339;48.748;2.222;2023-08-24T21:28:26;10.27;;;4.88;;
29344;SDS011;16339;48.748;2.222;2023-08-24T21:30:58;9.77;;;5.25;;
29344;SDS011;16339;48.748;2.222;2023-08-24T21:33:27;23.65;;;6.53;;
29344;SDS011;16339;48.748;2.222;2023-08-24T21:35:56;11.02;;;5.90;;
29344;SDS011;16339;48.748;2.222;2023-08-24T21:38:25;6.47;;;4.75;;
29344;SDS011;16339;48.748;2.222;2023-08-24T21:40:54;6.70;;;4.68;;
29344;SDS011;16339;48.748;2.222;2023-08-24T21:43:26;11.27;;;5.22;;
29344;SDS011;16339;48.748;2.222;2023-08-24T21:45:54;10.63;;;5.05;;
29344;SDS011;16339;48.748;2.222;2023-08-24T21:48:23;10.15;;;4.72;;
29344;SDS011;16339;48.748;2.222;2023-08-24T21:50:52;8.57;;;4.70;;
29344;SDS011;16339;48.748;2.222;2023-08-24T21:53:23;7.35;;;4.40;;
29344;SDS011;16339;48.748;2.222;2023-08-24T21:55:52;9.70;;;4.68;;
29344;SDS011;16339;48.748;2.222;2023-08-24T21:58:21;7.07;;;4.50;;
29344;SDS011;16339;48.748;2.222;2023-08-24T22:01:00;9.27;;;4.63;;
29344;SDS011;16339;48.748;2.222;2023-08-24T22:03:29;8.70;;;5.13;;
29344;SDS011;16339;48.748;2.222;2023-08-24T22:05:59;12.77;;;4.80;;
29344;SDS011;16339;48.748;2.222;2023-08-24T22:08:29;9.40;;;4.73;;
29344;SDS011;16339;48.748;2.222;2023-08-24T22:10:58;15.30;;;6.95;;
29344;SDS011;16339;48.748;2.222;2023-08-24T22:13:27;11.98;;;6.22;;
29344;SDS011;16339;48.748;2.222;2023-08-24T22:15:55;8.70;;;4.82;;
29344;SDS011;16339;48.748;2.222;2023-08-24T22:18:28;9.80;;;4.97;;
29344;SDS011;16339;48.748;2.222;2023-08-24T22:20:57;7.65;;;5.22;;
29344;SDS011;16339;48.748;2.222;2023-08-24T22:23:25;10.13;;;4.80;;
29344;SDS011;16339;48.748;2.222;2023-08-24T22:25:54;7.65;;;5.22;;
29344;SDS011;16339;48.748;2.222;2023-08-24T22:28:23;13.57;;;5.30;;
29344;SDS011;16339;48.748;2.222;2023-08-24T22:30:51;9.38;;;5.10;;
29344;SDS011;16339;48.748;2.222;2023-08-24T22:33:21;10.88;;;5.13;;
29344;SDS011;16339;48.748;2.222;2023-08-24T22:35:52;5.85;;;4.43;;
29344;SDS011;16339;48.748;2.222;2023-08-24T22:38:21;5.95;;;4.57;;
29344;SDS011;16339;48.748;2.222;2023-08-24T22:40:50;13.13;;;4.90;;
29344;SDS011;16339;48.748;2.222;2023-08-24T22:43:19;11.85;;;5.05;;
29344;SDS011;16339;48.748;2.222;2023-08-24T22:45:47;6.22;;;4.80;;
29344;SDS011;16339;48.748;2.222;2023-08-24T22:48:16;9.85;;;4.68;;
29344;SDS011;16339;48.748;2.222;2023-08-24T22:50:45;9.85;;;5.25;;
29344;SDS011;16339;48.748;2.222;2023-08-24T22:53:16;11.27;;;5.00;;
29344;SDS011;16339;48.748;2.222;2023-08-24T22:55:44;14.40;;;6.57;;
29344;SDS011;16339;48.748;2.222;2023-08-24T22:58:14;13.30;;;8.15;;
29344;SDS011;16339;48.748;2.222;2023-08-24T23:00:43;16.20;;;9.77;;
29344;SDS011;16339;48.748;2.222;2023-08-24T23:03:11;10.32;;;6.95;;
29344;SDS011;16339;48.748;2.222;2023-08-24T23:05:40;13.65;;;6.15;;
29344;SDS011;16339;48.748;2.222;2023-08-24T23:08:09;9.75;;;5.88;;
29344;SDS011;16339;48.748;2.222;2023-08-24T23:10:40;10.73;;;5.53;;
29344;SDS011;16339;48.748;2.222;2023-08-24T23:13:10;11.43;;;5.45;;
29344;SDS011;16339;48.748;2.222;2023-08-24T23:15:38;10.77;;;5.00;;